• Join FlightAware (Why Join?)
  • Login
  • US Flag 
01:22PM EST


 

Airport Tracker/Info


-or-


 

Live Flight TrackerFlight Track Log ✈ TAM8009 ✈ 29-Aug-2013 ✈ SABE / AEP - SBGR / GRU

Flight Track Log - Related Links

Times and Time Zones

All times are in EDT time to prevent confusion due to time zone crossing. See the TAM8009 flight status page for this flight to view local times or setup timezone preferences in your user account.

Time Position Orientation Groundspeed Altitude Reporting Facility
EDT Latitude Longitude Course Direction KTS MPH feet Rate Location/Type
10:10AM -34.5500 -58.4320 304° West 159 183 600  Level FlightAware
10:10AM -34.5450 -58.4390 311° West 164 189 1,100 2,286 Climbing FlightAware
10:10AM -34.5370 -58.4420 343° North 178 205 1,400 783 Climbing FlightAware
10:11AM -34.5140 -58.4300 23° Northeast 241 277 1,700 1,811 Climbing FlightAware
10:11AM -34.4860 -58.4080 33° Northeast 262 302 3,000 3,857 Climbing FlightAware
10:12AM -34.4610 -58.3890 32° Northeast 260 299 4,400 2,850 Climbing FlightAware
10:12AM -34.4450 -58.3760 34° Northeast 262 302 4,900 2,182 Climbing FlightAware
10:12AM -34.4290 -58.3630 34° Northeast 265 305 5,600 2,714 Climbing FlightAware
10:13AM -34.4010 -58.3420 32° Northeast 274 315 6,800 2,739 Climbing FlightAware
10:13AM -34.3790 -58.3250 33° Northeast 283 326 7,700 2,700 Climbing FlightAware
10:13AM -34.3580 -58.3080 34° Northeast 289 333 8,600 3,000 Climbing FlightAware
10:14AM -34.3430 -58.2960 33° Northeast 291 335 9,300 2,640 Climbing FlightAware
10:14AM -34.3280 -58.2880 24° Northeast 296 341 9,700 1,800 Climbing FlightAware
10:14AM -34.2790 -58.2640 22° Northeast 327 376 10,800 1,612 Climbing FlightAware
10:15AM -34.2340 -58.2430 21° North 353 406 11,500 1,913 Climbing FlightAware
10:15AM -34.1730 -58.2090 25° Northeast 373 429 13,000 2,211 Climbing FlightAware
10:16AM -34.1220 -58.1640 36° Northeast 384 442 14,300 2,087 Climbing FlightAware
10:17AM -34.0750 -58.1230 36° Northeast 391 450 15,400 2,197 Climbing FlightAware
10:17AM -34.0190 -58.0740 36° Northeast 397 457 16,900 2,219 Climbing FlightAware
10:18AM -33.9650 -58.0270 36° Northeast 405 466 18,100 2,087 Climbing FlightAware
10:18AM -33.9130 -57.9810 36° Northeast 409 471 19,300 2,057 Climbing FlightAware
10:19AM -33.8570 -57.9330 35° Northeast 415 478 20,500 1,800 Climbing FlightAware
10:20AM -33.8030 -57.8860 36° Northeast 423 487 21,400 1,667 Climbing FlightAware
10:20AM -33.7440 -57.8340 36° Northeast 428 493 22,500 1,667 Climbing FlightAware
10:21AM -33.6880 -57.7860 36° Northeast 432 497 23,400 1,645 Climbing FlightAware
10:21AM -33.6420 -57.7450 37° Northeast 436 502 24,200 1,457 Climbing FlightAware
10:22AM -33.5740 -57.6870 35° Northeast 444 511 25,100 1,459 Climbing FlightAware
10:22AM -33.5210 -57.6410 36° Northeast 445 512 26,000 1,352 Climbing FlightAware
10:23AM -33.4530 -57.5830 35° Northeast 454 522 26,700 1,183 Climbing FlightAware
10:24AM -33.3990 -57.5360 36° Northeast 457 526 27,400 1,400 Climbing FlightAware
10:24AM -33.3500 -57.4940 36° Northeast 458 527 28,100 1,200 Climbing FlightAware
10:25AM -33.2780 -57.4310 36° Northeast 463 533 28,900 988 Climbing FlightAware
10:26AM -33.2040 -57.3690 35° Northeast 472 543 29,500 1,015 Climbing FlightAware
10:26AM -33.1540 -57.3260 36° Northeast 475 547 30,000 1,075 Climbing FlightAware
10:27AM -33.0810 -57.2630 36° Northeast 480 552 30,700 1,308 Climbing FlightAware
10:27AM -33.0130 -57.2060 35° Northeast 472 543 31,700 1,286 Climbing FlightAware
10:28AM -32.9570 -57.1580 36° Northeast 473 544 32,200 1,043 Climbing FlightAware
10:28AM -32.8930 -57.1040 35° Northeast 472 543 32,900 1,083 Climbing FlightAware
10:29AM -32.8280 -57.0480 36° Northeast 473 544 33,500 971 Climbing FlightAware
10:30AM -32.7700 -57.0000 35° Northeast 473 544 34,000 943 Climbing FlightAware
10:30AM -32.7050 -56.9440 36° Northeast 472 543 34,600 986 Climbing FlightAware
10:31AM -32.6380 -56.8880 35° Northeast 470 541 35,200 1,167 Climbing FlightAware
10:31AM -32.5780 -56.8380 35° Northeast 463 533 36,000 1,000 Climbing FlightAware
10:32AM -32.5200 -56.7890 35° Northeast 462 532 36,400 771 Climbing FlightAware
10:33AM -32.4540 -56.7340 35° Northeast 461 531 36,900 456 Climbing FlightAware
10:33AM -32.3770 -56.6690 35° Northeast 458 527 37,000 75 Climbing FlightAware
10:34AM -32.3160 -56.6190 35° Northeast 459 528 37,000  Level FlightAware
10:35AM -32.2350 -56.5510 35° Northeast 463 533 37,000  Level FlightAware
10:36AM -32.1560 -56.4850 35° Northeast 459 528 37,000  Level FlightAware
10:36AM -32.1020 -56.4410 35° Northeast 459 528 37,000  Level FlightAware
10:37AM -32.0340 -56.3850 35° Northeast 459 528 37,000  Level FlightAware
10:38AM -31.9770 -56.3370 36° Northeast 459 528 37,000  Level FlightAware
10:38AM -31.9210 -56.2910 35° Northeast 459 528 37,000  Level FlightAware
10:39AM -31.8700 -56.2490 35° Northeast 459 528 37,000  Level FlightAware
10:39AM -31.8170 -56.2050 35° Northeast 459 528 37,000  Level FlightAware
10:40AM -31.6780 -56.0910 35° Northeast 463 533 37,000  Level FlightAware
10:41AM -31.6220 -56.0440 36° Northeast 463 533 37,000  Level FlightAware
10:41AM -31.5680 -56.0000 35° Northeast 463 533 37,000  Level FlightAware
10:42AM -31.5140 -55.9560 35° Northeast 463 533 37,000  Level FlightAware
10:43AM -31.4590 -55.9110 35° Northeast 463 533 37,000  Level FlightAware
10:43AM -31.4050 -55.8670 35° Northeast 463 533 37,000  Level FlightAware
10:44AM -31.3500 -55.8210 36° Northeast 463 533 37,000  Level FlightAware
10:44AM -31.2990 -55.7800 34° Northeast 463 533 37,000  Level FlightAware
10:45AM -31.2430 -55.7330 36° Northeast 463 533 37,000  Level FlightAware
10:46AM -31.1880 -55.6880 35° Northeast 463 533 37,000  Level FlightAware
10:46AM -31.1370 -55.6470 35° Northeast 463 533 37,000  Level FlightAware
10:47AM -31.0820 -55.6010 36° Northeast 463 533 37,000  Level FlightAware
10:47AM -31.0280 -55.5580 34° Northeast 463 533 37,000  Level FlightAware
10:48AM -30.9760 -55.5150 35° Northeast 463 533 37,000  Level FlightAware
10:49AM -30.9210 -55.4700 35° Northeast 463 533 37,000  Level FlightAware
10:49AM -30.8700 -55.4290 35° Northeast 463 533 37,000  Level FlightAware
10:50AM -30.6500 -55.2570 34° Northeast 463 533 37,000  Level FlightAware
10:50AM -30.5820 -55.2030 34° Northeast 463 533 37,000  Level FlightAware
10:51AM -30.5330 -55.1640 34° Northeast 464 534 37,000  Level FlightAware
10:52AM -30.4550 -55.1010 35° Northeast 463 533 37,000  Level FlightAware
10:52AM -30.4050 -55.0600 35° Northeast 463 533 37,000  Level FlightAware
10:53AM -30.3420 -55.0100 34° Northeast 463 533 37,000  Level FlightAware
10:53AM -30.2850 -54.9640 35° Northeast 463 533 37,000  Level FlightAware
10:54AM -30.1930 -54.8900 35° Northeast 463 533 37,000  Level FlightAware
10:55AM -30.1290 -54.8390 35° Northeast 464 534 37,000  Level FlightAware
10:55AM -30.0700 -54.7920 35° Northeast 464 534 37,000  Level FlightAware
10:56AM -30.0050 -54.7400 35° Northeast 464 534 37,000  Level FlightAware
10:56AM -29.9470 -54.6930 35° Northeast 464 534 37,000  Level FlightAware
10:57AM -29.8840 -54.6440 34° Northeast 463 533 37,000  Level FlightAware
10:58AM -29.8080 -54.5830 35° Northeast 463 533 37,000  Level FlightAware
10:58AM -29.7480 -54.5360 34° Northeast 464 534 37,000  Level FlightAware
10:59AM -29.6860 -54.4870 34° Northeast 464 534 37,000  Level FlightAware
10:59AM -29.6250 -54.4380 35° Northeast 464 534 37,000  Level FlightAware
11:00AM -29.5540 -54.3820 34° Northeast 463 533 37,000  Level FlightAware
11:01AM -29.4840 -54.3270 34° Northeast 463 533 37,000  Level FlightAware
11:01AM -29.4210 -54.2770 35° Northeast 463 533 37,000  Level FlightAware
11:02AM -29.3580 -54.2270 35° Northeast 463 533 37,000  Level FlightAware
11:02AM -29.3070 -54.1880 34° Northeast 463 533 37,000  Level FlightAware
11:03AM -29.2450 -54.1390 35° Northeast 463 533 37,000  Level FlightAware
11:04AM -29.1730 -54.0830 34° Northeast 463 533 37,000  Level FlightAware
11:04AM -29.1060 -54.0300 35° Northeast 464 534 37,000  Level FlightAware
11:05AM -29.0380 -53.9780 34° Northeast 464 534 37,000  Level FlightAware
11:05AM -28.9900 -53.9300 41° Northeast 472 543 37,000  Level FlightAware
11:06AM -28.9510 -53.8720 52° Northeast 473 544 37,000  Level FlightAware
11:07AM -28.9040 -53.8010 53° Northeast 472 543 37,000  Level FlightAware
11:07AM -28.8570 -53.7230 55° Northeast 473 544 37,000  Level FlightAware
11:08AM -28.8240 -53.6620 58° Northeast 473 544 37,000  Level FlightAware
11:08AM -28.7800 -53.5820 58° Northeast 472 543 37,000  Level FlightAware
11:09AM -28.7380 -53.5070 57° Northeast 472 543 37,000  Level FlightAware
11:09AM -28.6970 -53.4340 57° Northeast 472 543 37,000  Level FlightAware
11:10AM -28.6620 -53.3710 58° Northeast 473 544 37,000  Level FlightAware
11:11AM -28.6220 -53.2990 58° Northeast 473 544 37,000  Level FlightAware
11:11AM -28.5570 -53.1830 57° Northeast 474 545 37,000  Level FlightAware
11:12AM -28.5140 -53.1060 58° Northeast 476 548 37,000  Level FlightAware
11:13AM -28.4770 -53.0390 58° Northeast 476 548 37,000  Level FlightAware
11:13AM -28.4330 -52.9610 57° Northeast 476 548 37,000  Level FlightAware
11:14AM -28.3920 -52.8880 57° Northeast 476 548 37,000  Level FlightAware
11:14AM -28.3520 -52.8170 57° Northeast 477 549 37,000  Level FlightAware
11:15AM -28.3060 -52.7350 58° Northeast 477 549 37,000  Level FlightAware
11:15AM -28.2710 -52.6730 57° Northeast 478 550 37,000  Level FlightAware
11:16AM -28.2260 -52.5950 57° Northeast 478 550 37,000  Level FlightAware
11:17AM -28.1830 -52.5180 58° Northeast 477 549 37,000  Level FlightAware
11:17AM -28.1390 -52.4410 57° Northeast 477 549 37,000  Level FlightAware
11:18AM -28.0980 -52.3690 57° Northeast 477 549 37,000  Level FlightAware
11:18AM -28.0580 -52.2980 57° Northeast 476 548 37,000  Level FlightAware
11:19AM -28.0170 -52.2280 56° Northeast 476 548 37,000  Level FlightAware
11:20AM -27.9790 -52.1600 58° Northeast 477 549 37,000  Level FlightAware
11:20AM -27.9330 -52.0810 57° Northeast 477 549 37,000  Level FlightAware
11:21AM -27.8900 -52.0050 57° Northeast 477 549 37,000  Level FlightAware
11:21AM -27.8470 -51.9310 57° Northeast 477 549 37,000  Level FlightAware
11:22AM -27.8060 -51.8590 57° Northeast 477 549 37,000  Level FlightAware
11:22AM -27.7670 -51.7930 56° Northeast 478 550 37,000  Level FlightAware
11:23AM -27.7060 -51.6870 57° Northeast 479 551 37,000  Level FlightAware
11:24AM -27.6660 -51.6190 56° Northeast 479 551 37,000  Level FlightAware
11:25AM -27.6210 -51.5410 57° Northeast 479 551 37,000  Level FlightAware
11:25AM -27.5810 -51.4720 57° Northeast 481 554 37,000  Level FlightAware
11:26AM -27.5330 -51.3910 56° Northeast 482 555 37,000  Level FlightAware
11:26AM -27.4990 -51.3310 57° Northeast 482 555 37,000  Level FlightAware
11:27AM -27.4480 -51.2440 57° Northeast 484 557 37,000  Level FlightAware
11:27AM -27.4140 -51.1860 57° Northeast 485 558 37,000  Level FlightAware
11:28AM -27.3570 -51.0890 57° Northeast 484 557 37,000  Level FlightAware
11:29AM -27.3210 -51.0280 56° Northeast 485 558 37,000  Level FlightAware
11:29AM -27.2800 -50.9590 56° Northeast 485 558 37,000  Level FlightAware
11:30AM -27.2430 -50.8960 57° Northeast 486 559 37,000  Level FlightAware
11:30AM -27.2040 -50.8290 57° Northeast 487 560 37,000  Level FlightAware
11:31AM -27.1210 -50.6890 56° Northeast 488 562 37,000  Level FlightAware
11:32AM -27.0740 -50.6100 56° Northeast 489 563 37,000  Level FlightAware
11:32AM -27.0270 -50.5310 56° Northeast 490 564 37,000  Level FlightAware
11:33AM -26.9820 -50.4550 56° Northeast 491 565 37,000  Level FlightAware
11:34AM -26.9450 -50.3930 56° Northeast 411 473 37,000  Level FlightAware
11:34AM -26.9070 -50.3290 56° Northeast 493 567 37,000  Level FlightAware
11:35AM -26.8540 -50.2410 56° Northeast 494 568 37,000  Level FlightAware
11:35AM -26.8070 -50.1620 56° Northeast 496 571 37,000  Level FlightAware
11:36AM -26.7670 -50.0960 56° Northeast 498 573 37,000  Level FlightAware
11:37AM -26.7200 -50.0170 56° Northeast 498 573 37,000  Level FlightAware
11:37AM -26.6800 -49.9510 56° Northeast 498 573 37,000  Level FlightAware
11:38AM -26.6280 -49.8650 56° Northeast 500 575 37,000  Level FlightAware
11:38AM -26.5730 -49.7750 56° Northeast 500 575 37,000  Level FlightAware
11:39AM -26.5370 -49.7140 57° Northeast 501 577 37,000  Level FlightAware
11:40AM -26.4890 -49.6350 56° Northeast 501 577 37,000  Level FlightAware
11:40AM -26.4450 -49.5630 56° Northeast 502 578 37,000  Level FlightAware
11:41AM -26.3970 -49.4850 56° Northeast 503 579 37,000  Level FlightAware
11:41AM -26.3530 -49.4110 56° Northeast 503 579 37,000  Level FlightAware
11:42AM -26.3060 -49.3350 55° Northeast 503 579 37,000  Level FlightAware
11:43AM -26.2550 -49.2520 56° Northeast 503 579 37,000  Level FlightAware
11:43AM -26.2150 -49.1870 56° Northeast 504 580 37,000  Level FlightAware
11:44AM -26.1690 -49.1110 56° Northeast 505 581 37,000  Level FlightAware
11:44AM -26.1210 -49.0340 55° Northeast 506 582 37,000  Level FlightAware
11:45AM -26.0830 -48.9710 56° Northeast 507 583 37,000  Level FlightAware
11:45AM -26.0290 -48.8830 56° Northeast 509 586 37,000  Level FlightAware
11:46AM -25.9800 -48.8040 55° Northeast 511 588 37,000  Level FlightAware
11:47AM -25.9310 -48.7250 55° Northeast 512 589 37,000  Level FlightAware
11:47AM -25.8820 -48.6470 55° Northeast 515 593 37,000  Level FlightAware
11:48AM -25.8360 -48.5720 56° Northeast 516 594 37,000  Level FlightAware
11:48AM -25.7890 -48.4960 56° Northeast 518 596 37,000  Level FlightAware
11:49AM -25.7470 -48.4290 55° Northeast 520 598 37,000  Level FlightAware
11:49AM -25.7050 -48.3620 55° Northeast 521 600 37,000  Level FlightAware
11:50AM -25.6510 -48.2760 55° Northeast 523 602 37,000  Level FlightAware
11:51AM -25.6020 -48.1970 55° Northeast 524 603 37,000  Level FlightAware
11:51AM -25.5540 -48.1200 55° Northeast 526 605 37,000  Level FlightAware
11:52AM -25.4990 -48.0320 55° Northeast 527 606 37,000  Level FlightAware
11:52AM -25.4500 -47.9550 55° Northeast 528 608 37,000  Level FlightAware
11:53AM -25.4070 -47.8870 55° Northeast 530 610 37,000  Level FlightAware
11:54AM -25.3600 -47.8120 55° Northeast 530 610 37,000  Level FlightAware
11:54AM -25.3080 -47.7290 55° Northeast 532 612 37,000  Level FlightAware
11:55AM -25.2530 -47.6430 55° Northeast 534 615 37,000  Level FlightAware
11:55AM -25.1980 -47.5570 55° Northeast 536 617 37,000  Level FlightAware
11:56AM -25.1400 -47.4650 55° Northeast 538 619 37,000  Level FlightAware
11:57AM -25.0910 -47.3880 55° Northeast 538 619 37,000  Level FlightAware
11:57AM -25.0430 -47.3120 55° Northeast 536 617 37,000 -686 Level FlightAware
11:58AM -24.9890 -47.2280 55° Northeast 541 623 36,200 -1,629 Descending FlightAware
11:58AM -24.9390 -47.1500 55° Northeast 533 613 35,100 -1,913 Descending FlightAware
11:59AM -24.8910 -47.0750 55° Northeast 525 604 34,000 -1,726 Descending FlightAware
12:00PM -24.8440 -47.0010 55° Northeast 514 592 33,000 -1,615 Descending FlightAware
12:00PM -24.7900 -46.9170 55° Northeast 501 577 31,900 -1,658 Descending FlightAware
12:01PM -24.7410 -46.8410 55° Northeast 489 563 30,900 -1,714 Descending FlightAware
12:01PM -24.6960 -46.7720 54° Northeast 477 549 29,900 -1,652 Descending FlightAware
12:02PM -24.6520 -46.7040 55° Northeast 466 536 29,000 -1,543 Descending FlightAware
12:03PM -24.6080 -46.6380 54° Northeast 453 521 28,100 -1,358 Descending FlightAware
12:03PM -24.5840 -46.6150 41° Northeast 443 510 27,800 -1,500 Descending FlightAware
12:03PM -24.5240 -46.5840 25° Northeast 425 489 26,900 -1,254 Descending FlightAware
12:04PM -24.4570 -46.5680 12° North 413 475 26,400 -917 Descending FlightAware
12:05PM -24.3910 -46.5520 12° North 411 473 25,800 -1,457 Descending FlightAware
12:05PM -24.3270 -46.5370 12° North 408 470 24,700 -1,913 Descending FlightAware
12:06PM -24.2640 -46.5220 12° North 405 466 23,600 -1,944 Descending FlightAware
12:06PM -24.1970 -46.5050 13° North 400 460 22,400 -1,944 Descending FlightAware
12:07PM -24.1350 -46.4910 12° North 396 456 21,300 -1,890 Descending FlightAware
12:08PM -24.0680 -46.4750 12° North 390 449 20,100 -1,846 Descending FlightAware
12:08PM -24.0000 -46.4580 13° North 385 443 18,900 -2,000 Descending FlightAware
12:09PM -23.9280 -46.4420 11° North 379 436 17,600 -1,946 Descending FlightAware
12:10PM -23.8620 -46.4260 13° North 374 430 16,500 -1,826 Descending FlightAware
12:10PM -23.8100 -46.4130 13° North 369 425 15,500 -1,826 Descending FlightAware
12:11PM -23.7450 -46.3980 12° North 364 419 14,400 -1,727 Descending FlightAware
12:11PM -23.7010 -46.3880 12° North 359 413 13,600 -1,527 Descending FlightAware
12:12PM -23.6700 -46.3820 10° North 352 405 13,000 -1,667 Descending FlightAware
12:12PM -23.6460 -46.3880 347° North 342 394 12,600 -941 Descending FlightAware
12:12PM -23.5890 -46.4090 341° North 305 351 12,200 -730 Descending FlightAware
12:13PM -23.5420 -46.4260 342° North 292 336 11,700 -1,164 Descending FlightAware
12:14PM -23.4980 -46.4420 342° North 290 334 10,900 -1,200 Descending FlightAware
12:14PM -23.4640 -46.4630 330° Northwest 276 318 10,400 -1,320 Descending FlightAware
12:14PM -23.4490 -46.4870 304° West 276 318 9,800 -1,800 Descending FlightAware
12:15PM -23.4370 -46.5100 300° West 269 310 9,200 -1,688 Descending FlightAware
12:15PM -23.4300 -46.5220 302° West 269 310 8,900 -1,800 Descending FlightAware
12:15PM -23.4180 -46.5450 300° West 265 305 8,300 -1,674 Descending FlightAware
12:16PM -23.4020 -46.5750 300° West 260 299 7,700 -1,500 Descending FlightAware
12:16PM -23.3950 -46.5910 295° West 249 287 7,300 -1,680 Descending FlightAware
12:16PM -23.3930 -46.6040 280° West 248 285 7,000 -1,500 Descending FlightAware
12:16PM -23.3940 -46.6090 258° West 246 283 6,900 -1,500 Descending FlightAware
12:16PM -23.3980 -46.6230 253° West 240 276 6,600 -2,200 Descending FlightAware
12:17PM -23.4060 -46.6470 250° West 246 283 5,800 -2,222 Descending FlightAware
12:17PM -23.4090 -46.6520 237° Southwest 247 284 5,600 -1,500 Descending FlightAware
12:17PM -23.4170 -46.6600 223° Southwest 241 277 5,400 -1,286 Descending FlightAware
12:17PM -23.4220 -46.6630 209° Southwest 235 270 5,300 -800 Descending FlightAware
12:17PM -23.4340 -46.6650 189° South 228 262 5,200 -600 Descending FlightAware
12:17PM -23.4440 -46.6630 170° South 217 250 5,100 -300 Descending FlightAware
12:17PM -23.4530 -46.6580 153° Southeast 201 231 5,100  Level FlightAware
12:18PM -23.4560 -46.6540 129° Southeast 199 229 5,100  Level FlightAware
12:18PM -23.4580 -46.6510 126° Southeast 192 221 5,100 -400 Level FlightAware
12:18PM -23.4610 -46.6420 110° East 177 204 5,000 -414 Descending FlightAware
12:18PM -23.4670 -46.6270 114° Southeast 168 193 4,900 -486 Descending FlightAware
12:18PM -23.4710 -46.6150 110° East 158 182 4,700 -1,263 Descending FlightAware
12:19PM -23.4680 -46.5960 80° East 157 181 4,100 -1,171 Descending FlightAware
12:19PM -23.4640 -46.5810 74° East 145 167 3,900 -714 Descending FlightAware
12:19PM -23.4600 -46.5660 74° East 143 165 3,600 -833 Descending FlightAware
12:20PM -23.4570 -46.5560 72° East 143 165 3,400 -706 Descending FlightAware
12:20PM -23.4540 -46.5430 76° East 139 160 3,200 -732 Descending FlightAware
12:20PM -23.4500 -46.5290 73° East 136 157 2,900 -706 Descending FlightAware
12:21PM -23.4450 -46.5110 73° East 140 161 2,600 -612 Descending FlightAware
12:21PM -23.4410 -46.4960 74° East 143 165 2,400 -632 Descending FlightAware
12:22PM -23.4360 -46.4760 75° East 125 144 -4,645 Descending FlightAware
12:22PM -23.4320 -46.4640 70° East 105 121  Level FlightAware